sensor_id;sensor_type;location;lat;lon;timestamp;P1;durP1;ratioP1;P2;durP2;ratioP2
13927;SDS011;7036;50.834;4.718;2024-02-16T00:00:04;1.50;;;1.27;;
13927;SDS011;7036;50.834;4.718;2024-02-16T00:02:31;1.30;;;1.10;;
13927;SDS011;7036;50.834;4.718;2024-02-16T00:04:59;1.40;;;1.30;;
13927;SDS011;7036;50.834;4.718;2024-02-16T00:07:27;2.00;;;1.35;;
13927;SDS011;7036;50.834;4.718;2024-02-16T00:09:55;2.53;;;1.30;;
13927;SDS011;7036;50.834;4.718;2024-02-16T00:12:23;2.20;;;1.42;;
13927;SDS011;7036;50.834;4.718;2024-02-16T00:14:50;1.50;;;1.10;;
13927;SDS011;7036;50.834;4.718;2024-02-16T00:17:18;1.88;;;1.17;;
13927;SDS011;7036;50.834;4.718;2024-02-16T00:19:46;2.88;;;1.35;;
13927;SDS011;7036;50.834;4.718;2024-02-16T00:25:01;1.20;;;1.10;;
13927;SDS011;7036;50.834;4.718;2024-02-16T00:27:27;1.53;;;1.20;;
13927;SDS011;7036;50.834;4.718;2024-02-16T00:29:55;1.50;;;1.40;;
13927;SDS011;7036;50.834;4.718;2024-02-16T00:32:23;1.23;;;1.00;;
13927;SDS011;7036;50.834;4.718;2024-02-16T00:34:51;2.17;;;1.30;;
13927;SDS011;7036;50.834;4.718;2024-02-16T00:37:19;1.60;;;1.23;;
13927;SDS011;7036;50.834;4.718;2024-02-16T00:39:46;1.83;;;1.30;;
13927;SDS011;7036;50.834;4.718;2024-02-16T00:42:14;2.00;;;1.45;;
13927;SDS011;7036;50.834;4.718;2024-02-16T00:44:42;1.52;;;1.08;;
13927;SDS011;7036;50.834;4.718;2024-02-16T00:47:10;1.60;;;1.17;;
13927;SDS011;7036;50.834;4.718;2024-02-16T00:49:38;2.13;;;1.25;;
13927;SDS011;7036;50.834;4.718;2024-02-16T00:52:05;1.50;;;1.30;;
13927;SDS011;7036;50.834;4.718;2024-02-16T00:54:33;2.63;;;1.67;;
13927;SDS011;7036;50.834;4.718;2024-02-16T00:57:18;0.80;;;0.80;;
13927;SDS011;7036;50.834;4.718;2024-02-16T01:00:03;0.83;;;0.83;;
13927;SDS011;7036;50.834;4.718;2024-02-16T01:02:33;1.50;;;1.20;;
13927;SDS011;7036;50.834;4.718;2024-02-16T01:07:46;1.23;;;1.10;;
13927;SDS011;7036;50.834;4.718;2024-02-16T01:10:14;1.20;;;1.10;;
13927;SDS011;7036;50.834;4.718;2024-02-16T01:12:42;1.40;;;1.30;;
13927;SDS011;7036;50.834;4.718;2024-02-16T01:15:10;1.10;;;0.95;;
13927;SDS011;7036;50.834;4.718;2024-02-16T01:17:38;1.65;;;1.52;;
13927;SDS011;7036;50.834;4.718;2024-02-16T01:20:06;1.25;;;1.00;;
13927;SDS011;7036;50.834;4.718;2024-02-16T01:22:34;1.67;;;1.50;;
13927;SDS011;7036;50.834;4.718;2024-02-16T01:27:46;1.53;;;1.23;;
13927;SDS011;7036;50.834;4.718;2024-02-16T01:30:14;2.33;;;1.33;;
13927;SDS011;7036;50.834;4.718;2024-02-16T01:32:42;1.83;;;1.40;;
13927;SDS011;7036;50.834;4.718;2024-02-16T01:35:10;1.65;;;1.00;;
13927;SDS011;7036;50.834;4.718;2024-02-16T01:37:38;1.50;;;1.40;;
13927;SDS011;7036;50.834;4.718;2024-02-16T01:40:06;1.20;;;1.10;;
13927;SDS011;7036;50.834;4.718;2024-02-16T01:42:33;1.52;;;1.20;;
13927;SDS011;7036;50.834;4.718;2024-02-16T01:45:01;1.55;;;1.20;;
13927;SDS011;7036;50.834;4.718;2024-02-16T01:47:47;1.63;;;1.30;;
13927;SDS011;7036;50.834;4.718;2024-02-16T01:50:14;1.10;;;1.00;;
13927;SDS011;7036;50.834;4.718;2024-02-16T01:52:42;3.35;;;1.30;;
13927;SDS011;7036;50.834;4.718;2024-02-16T01:55:10;1.52;;;1.35;;
13927;SDS011;7036;50.834;4.718;2024-02-16T01:57:47;1.10;;;1.00;;
13927;SDS011;7036;50.834;4.718;2024-02-16T02:00:11;1.50;;;1.40;;
13927;SDS011;7036;50.834;4.718;2024-02-16T02:02:38;1.58;;;1.35;;
13927;SDS011;7036;50.834;4.718;2024-02-16T02:05:06;1.20;;;1.10;;
13927;SDS011;7036;50.834;4.718;2024-02-16T02:10:37;1.23;;;1.10;;
13927;SDS011;7036;50.834;4.718;2024-02-16T02:13:05;1.33;;;1.23;;
13927;SDS011;7036;50.834;4.718;2024-02-16T02:15:50;1.30;;;1.20;;
13927;SDS011;7036;50.834;4.718;2024-02-16T02:21:03;1.37;;;1.07;;
13927;SDS011;7036;50.834;4.718;2024-02-16T02:23:30;1.67;;;1.15;;
13927;SDS011;7036;50.834;4.718;2024-02-16T02:25:57;1.33;;;1.20;;
13927;SDS011;7036;50.834;4.718;2024-02-16T02:31:11;1.93;;;1.20;;
13927;SDS011;7036;50.834;4.718;2024-02-16T02:33:39;1.20;;;1.02;;
13927;SDS011;7036;50.834;4.718;2024-02-16T02:36:06;1.98;;;1.30;;
13927;SDS011;7036;50.834;4.718;2024-02-16T02:38:33;1.50;;;1.40;;
13927;SDS011;7036;50.834;4.718;2024-02-16T02:41:00;1.20;;;1.10;;
13927;SDS011;7036;50.834;4.718;2024-02-16T02:43:28;2.17;;;1.23;;
13927;SDS011;7036;50.834;4.718;2024-02-16T02:46:17;1.10;;;1.00;;
13927;SDS011;7036;50.834;4.718;2024-02-16T02:48:44;2.33;;;1.37;;
13927;SDS011;7036;50.834;4.718;2024-02-16T02:51:11;1.80;;;1.10;;
13927;SDS011;7036;50.834;4.718;2024-02-16T02:53:38;2.87;;;1.20;;
13927;SDS011;7036;50.834;4.718;2024-02-16T02:56:06;1.30;;;1.20;;
13927;SDS011;7036;50.834;4.718;2024-02-16T02:58:34;2.20;;;1.10;;
13927;SDS011;7036;50.834;4.718;2024-02-16T03:01:02;1.40;;;1.02;;
13927;SDS011;7036;50.834;4.718;2024-02-16T03:03:47;1.13;;;1.03;;
13927;SDS011;7036;50.834;4.718;2024-02-16T03:06:18;1.30;;;1.20;;
13927;SDS011;7036;50.834;4.718;2024-02-16T03:08:45;1.40;;;1.30;;
13927;SDS011;7036;50.834;4.718;2024-02-16T03:11:12;1.10;;;1.00;;
13927;SDS011;7036;50.834;4.718;2024-02-16T03:13:40;1.30;;;1.20;;
13927;SDS011;7036;50.834;4.718;2024-02-16T03:16:08;1.50;;;1.40;;
13927;SDS011;7036;50.834;4.718;2024-02-16T03:18:36;1.88;;;1.40;;
13927;SDS011;7036;50.834;4.718;2024-02-16T03:21:03;2.05;;;1.40;;
13927;SDS011;7036;50.834;4.718;2024-02-16T03:23:30;1.42;;;1.30;;
13927;SDS011;7036;50.834;4.718;2024-02-16T03:25:58;1.40;;;1.00;;
13927;SDS011;7036;50.834;4.718;2024-02-16T03:28:26;1.60;;;1.50;;
13927;SDS011;7036;50.834;4.718;2024-02-16T03:31:19;2.63;;;1.40;;
13927;SDS011;7036;50.834;4.718;2024-02-16T03:33:46;1.90;;;1.17;;
13927;SDS011;7036;50.834;4.718;2024-02-16T03:36:13;1.92;;;1.38;;
13927;SDS011;7036;50.834;4.718;2024-02-16T03:38:41;1.23;;;1.13;;
13927;SDS011;7036;50.834;4.718;2024-02-16T03:41:08;1.15;;;1.05;;
13927;SDS011;7036;50.834;4.718;2024-02-16T03:43:35;1.23;;;1.13;;
13927;SDS011;7036;50.834;4.718;2024-02-16T03:46:03;1.52;;;1.30;;
13927;SDS011;7036;50.834;4.718;2024-02-16T03:48:31;1.67;;;1.52;;
13927;SDS011;7036;50.834;4.718;2024-02-16T03:53:44;1.27;;;1.17;;
13927;SDS011;7036;50.834;4.718;2024-02-16T03:56:11;1.13;;;1.02;;
13927;SDS011;7036;50.834;4.718;2024-02-16T03:58:39;1.35;;;1.25;;
13927;SDS011;7036;50.834;4.718;2024-02-16T04:01:06;1.40;;;1.30;;
13927;SDS011;7036;50.834;4.718;2024-02-16T04:03:34;2.08;;;1.10;;
13927;SDS011;7036;50.834;4.718;2024-02-16T04:06:01;1.75;;;1.13;;
13927;SDS011;7036;50.834;4.718;2024-02-16T04:08:29;1.10;;;1.00;;
13927;SDS011;7036;50.834;4.718;2024-02-16T04:11:14;1.40;;;1.30;;
13927;SDS011;7036;50.834;4.718;2024-02-16T04:16:28;1.20;;;1.10;;
13927;SDS011;7036;50.834;4.718;2024-02-16T04:18:55;0.95;;;0.90;;
13927;SDS011;7036;50.834;4.718;2024-02-16T04:21:23;1.60;;;1.25;;
13927;SDS011;7036;50.834;4.718;2024-02-16T04:23:51;1.35;;;1.25;;
13927;SDS011;7036;50.834;4.718;2024-02-16T04:26:19;1.13;;;1.02;;
13927;SDS011;7036;50.834;4.718;2024-02-16T04:28:47;1.55;;;1.40;;
13927;SDS011;7036;50.834;4.718;2024-02-16T04:31:14;1.70;;;1.40;;
13927;SDS011;7036;50.834;4.718;2024-02-16T04:33:42;1.13;;;1.02;;
13927;SDS011;7036;50.834;4.718;2024-02-16T04:36:10;1.48;;;1.17;;
13927;SDS011;7036;50.834;4.718;2024-02-16T04:38:37;1.55;;;1.30;;
13927;SDS011;7036;50.834;4.718;2024-02-16T04:41:04;1.88;;;1.35;;
13927;SDS011;7036;50.834;4.718;2024-02-16T04:43:31;1.20;;;1.05;;
13927;SDS011;7036;50.834;4.718;2024-02-16T04:45:59;1.20;;;1.10;;
13927;SDS011;7036;50.834;4.718;2024-02-16T04:48:26;1.95;;;1.50;;
13927;SDS011;7036;50.834;4.718;2024-02-16T04:50:54;1.50;;;1.40;;
13927;SDS011;7036;50.834;4.718;2024-02-16T04:53:21;2.65;;;1.40;;
13927;SDS011;7036;50.834;4.718;2024-02-16T04:55:49;1.52;;;1.38;;
13927;SDS011;7036;50.834;4.718;2024-02-16T04:58:17;1.30;;;1.20;;
13927;SDS011;7036;50.834;4.718;2024-02-16T05:00:44;1.42;;;1.33;;
13927;SDS011;7036;50.834;4.718;2024-02-16T05:03:12;1.88;;;1.23;;
13927;SDS011;7036;50.834;4.718;2024-02-16T05:05:41;1.45;;;1.35;;
13927;SDS011;7036;50.834;4.718;2024-02-16T05:08:07;1.40;;;1.30;;
13927;SDS011;7036;50.834;4.718;2024-02-16T05:10:35;1.50;;;1.38;;
13927;SDS011;7036;50.834;4.718;2024-02-16T05:13:03;1.25;;;1.15;;
13927;SDS011;7036;50.834;4.718;2024-02-16T05:15:33;2.33;;;1.27;;
13927;SDS011;7036;50.834;4.718;2024-02-16T05:18:01;1.67;;;1.33;;
13927;SDS011;7036;50.834;4.718;2024-02-16T05:20:29;1.30;;;1.20;;
13927;SDS011;7036;50.834;4.718;2024-02-16T05:22:57;1.50;;;1.10;;
13927;SDS011;7036;50.834;4.718;2024-02-16T05:25:42;1.53;;;1.27;;
13927;SDS011;7036;50.834;4.718;2024-02-16T05:28:10;1.40;;;1.13;;
13927;SDS011;7036;50.834;4.718;2024-02-16T05:33:22;2.90;;;1.50;;
13927;SDS011;7036;50.834;4.718;2024-02-16T05:35:50;1.85;;;1.35;;
13927;SDS011;7036;50.834;4.718;2024-02-16T05:38:17;1.90;;;1.50;;
13927;SDS011;7036;50.834;4.718;2024-02-16T05:40:45;3.17;;;1.48;;
13927;SDS011;7036;50.834;4.718;2024-02-16T05:43:31;1.20;;;1.10;;
13927;SDS011;7036;50.834;4.718;2024-02-16T05:48:43;3.27;;;1.40;;
13927;SDS011;7036;50.834;4.718;2024-02-16T05:51:10;1.70;;;1.60;;
13927;SDS011;7036;50.834;4.718;2024-02-16T05:53:38;2.47;;;1.55;;
13927;SDS011;7036;50.834;4.718;2024-02-16T05:56:06;1.52;;;1.42;;
13927;SDS011;7036;50.834;4.718;2024-02-16T05:58:34;1.92;;;1.58;;
13927;SDS011;7036;50.834;4.718;2024-02-16T06:01:02;1.20;;;1.10;;
13927;SDS011;7036;50.834;4.718;2024-02-16T06:03:30;2.75;;;1.85;;
13927;SDS011;7036;50.834;4.718;2024-02-16T06:05:58;1.45;;;1.35;;
13927;SDS011;7036;50.834;4.718;2024-02-16T06:08:25;1.85;;;1.75;;
13927;SDS011;7036;50.834;4.718;2024-02-16T06:10:53;1.30;;;1.20;;
13927;SDS011;7036;50.834;4.718;2024-02-16T06:13:21;1.20;;;1.10;;
13927;SDS011;7036;50.834;4.718;2024-02-16T06:15:49;1.10;;;0.98;;
13927;SDS011;7036;50.834;4.718;2024-02-16T06:18:17;2.53;;;1.40;;
13927;SDS011;7036;50.834;4.718;2024-02-16T06:20:45;1.70;;;1.60;;
13927;SDS011;7036;50.834;4.718;2024-02-16T06:23:12;1.95;;;1.50;;
13927;SDS011;7036;50.834;4.718;2024-02-16T06:25:40;2.70;;;1.40;;
13927;SDS011;7036;50.834;4.718;2024-02-16T06:28:25;1.40;;;1.30;;
13927;SDS011;7036;50.834;4.718;2024-02-16T06:30:53;1.30;;;1.20;;
13927;SDS011;7036;50.834;4.718;2024-02-16T06:33:21;1.92;;;1.27;;
13927;SDS011;7036;50.834;4.718;2024-02-16T06:35:49;1.50;;;1.40;;
13927;SDS011;7036;50.834;4.718;2024-02-16T06:38:17;1.95;;;1.42;;
13927;SDS011;7036;50.834;4.718;2024-02-16T06:40:45;1.85;;;1.48;;
13927;SDS011;7036;50.834;4.718;2024-02-16T06:43:30;1.30;;;1.20;;
13927;SDS011;7036;50.834;4.718;2024-02-16T06:45:57;2.00;;;1.40;;
13927;SDS011;7036;50.834;4.718;2024-02-16T06:48:25;1.95;;;1.40;;
13927;SDS011;7036;50.834;4.718;2024-02-16T06:50:53;2.25;;;1.55;;
13927;SDS011;7036;50.834;4.718;2024-02-16T06:53:21;1.85;;;1.35;;
13927;SDS011;7036;50.834;4.718;2024-02-16T06:58:35;6.37;;;2.00;;
13927;SDS011;7036;50.834;4.718;2024-02-16T07:01:03;5.30;;;2.10;;
13927;SDS011;7036;50.834;4.718;2024-02-16T07:03:29;14.20;;;2.92;;
13927;SDS011;7036;50.834;4.718;2024-02-16T07:05:57;5.35;;;2.03;;
13927;SDS011;7036;50.834;4.718;2024-02-16T07:08:25;5.90;;;1.90;;
13927;SDS011;7036;50.834;4.718;2024-02-16T07:10:53;2.38;;;1.52;;
13927;SDS011;7036;50.834;4.718;2024-02-16T07:13:23;4.28;;;1.85;;
13927;SDS011;7036;50.834;4.718;2024-02-16T07:15:49;4.78;;;2.20;;
13927;SDS011;7036;50.834;4.718;2024-02-16T07:18:16;4.18;;;2.13;;
13927;SDS011;7036;50.834;4.718;2024-02-16T07:20:43;3.55;;;2.22;;
13927;SDS011;7036;50.834;4.718;2024-02-16T07:23:11;3.67;;;2.40;;
13927;SDS011;7036;50.834;4.718;2024-02-16T07:25:39;4.45;;;2.17;;
13927;SDS011;7036;50.834;4.718;2024-02-16T07:28:06;6.28;;;2.13;;
13927;SDS011;7036;50.834;4.718;2024-02-16T07:30:33;6.10;;;2.85;;
13927;SDS011;7036;50.834;4.718;2024-02-16T07:33:00;13.73;;;2.50;;
13927;SDS011;7036;50.834;4.718;2024-02-16T07:35:28;7.18;;;3.45;;
13927;SDS011;7036;50.834;4.718;2024-02-16T07:38:13;5.83;;;2.70;;
13927;SDS011;7036;50.834;4.718;2024-02-16T07:40:41;13.38;;;2.38;;
13927;SDS011;7036;50.834;4.718;2024-02-16T07:43:09;9.68;;;2.65;;
13927;SDS011;7036;50.834;4.718;2024-02-16T07:45:55;12.00;;;2.27;;
13927;SDS011;7036;50.834;4.718;2024-02-16T07:48:22;6.13;;;2.40;;
13927;SDS011;7036;50.834;4.718;2024-02-16T07:50:49;6.47;;;2.70;;
13927;SDS011;7036;50.834;4.718;2024-02-16T07:53:16;6.10;;;2.40;;
13927;SDS011;7036;50.834;4.718;2024-02-16T07:55:44;5.18;;;1.98;;
13927;SDS011;7036;50.834;4.718;2024-02-16T07:58:12;4.03;;;2.20;;
13927;SDS011;7036;50.834;4.718;2024-02-16T08:00:40;5.97;;;2.50;;
13927;SDS011;7036;50.834;4.718;2024-02-16T08:05:55;3.67;;;1.87;;
13927;SDS011;7036;50.834;4.718;2024-02-16T08:08:22;3.83;;;2.57;;
13927;SDS011;7036;50.834;4.718;2024-02-16T08:10:50;4.45;;;2.53;;
13927;SDS011;7036;50.834;4.718;2024-02-16T08:13:18;7.88;;;3.47;;
13927;SDS011;7036;50.834;4.718;2024-02-16T08:16:04;7.13;;;2.20;;
13927;SDS011;7036;50.834;4.718;2024-02-16T08:18:49;4.13;;;2.23;;
13927;SDS011;7036;50.834;4.718;2024-02-16T08:21:35;4.00;;;2.40;;
13927;SDS011;7036;50.834;4.718;2024-02-16T08:24:03;5.68;;;2.80;;
13927;SDS011;7036;50.834;4.718;2024-02-16T08:26:30;4.70;;;2.50;;
13927;SDS011;7036;50.834;4.718;2024-02-16T08:28:57;7.27;;;2.63;;
13927;SDS011;7036;50.834;4.718;2024-02-16T08:31:25;6.28;;;3.10;;
13927;SDS011;7036;50.834;4.718;2024-02-16T08:33:53;4.90;;;2.72;;
13927;SDS011;7036;50.834;4.718;2024-02-16T08:36:21;4.72;;;2.45;;
13927;SDS011;7036;50.834;4.718;2024-02-16T08:38:49;4.07;;;2.75;;
13927;SDS011;7036;50.834;4.718;2024-02-16T08:41:17;4.80;;;2.20;;
13927;SDS011;7036;50.834;4.718;2024-02-16T08:43:45;3.80;;;2.17;;
13927;SDS011;7036;50.834;4.718;2024-02-16T08:46:13;3.15;;;2.67;;
13927;SDS011;7036;50.834;4.718;2024-02-16T08:48:41;6.03;;;2.47;;
13927;SDS011;7036;50.834;4.718;2024-02-16T08:51:08;2.25;;;1.85;;
13927;SDS011;7036;50.834;4.718;2024-02-16T08:53:36;3.65;;;2.17;;
13927;SDS011;7036;50.834;4.718;2024-02-16T08:56:08;4.30;;;2.30;;
13927;SDS011;7036;50.834;4.718;2024-02-16T08:58:32;4.03;;;2.30;;
13927;SDS011;7036;50.834;4.718;2024-02-16T09:01:00;5.93;;;2.22;;
13927;SDS011;7036;50.834;4.718;2024-02-16T09:03:28;3.47;;;2.50;;
13927;SDS011;7036;50.834;4.718;2024-02-16T09:05:57;4.03;;;2.30;;
13927;SDS011;7036;50.834;4.718;2024-02-16T09:08:24;3.77;;;1.97;;
13927;SDS011;7036;50.834;4.718;2024-02-16T09:10:51;2.42;;;2.00;;
13927;SDS011;7036;50.834;4.718;2024-02-16T09:13:19;5.68;;;2.70;;
13927;SDS011;7036;50.834;4.718;2024-02-16T09:15:47;3.92;;;2.30;;
13927;SDS011;7036;50.834;4.718;2024-02-16T09:18:15;2.60;;;2.40;;
13927;SDS011;7036;50.834;4.718;2024-02-16T09:20:43;2.75;;;2.15;;
13927;SDS011;7036;50.834;4.718;2024-02-16T09:23:11;3.20;;;2.55;;
13927;SDS011;7036;50.834;4.718;2024-02-16T09:25:39;3.42;;;2.30;;
13927;SDS011;7036;50.834;4.718;2024-02-16T09:28:07;3.53;;;2.15;;
13927;SDS011;7036;50.834;4.718;2024-02-16T09:30:36;2.83;;;1.75;;
13927;SDS011;7036;50.834;4.718;2024-02-16T09:33:03;5.00;;;2.30;;
13927;SDS011;7036;50.834;4.718;2024-02-16T09:35:31;5.78;;;2.20;;
13927;SDS011;7036;50.834;4.718;2024-02-16T09:37:59;3.63;;;2.45;;
13927;SDS011;7036;50.834;4.718;2024-02-16T09:40:26;2.70;;;2.30;;
13927;SDS011;7036;50.834;4.718;2024-02-16T09:42:54;4.28;;;2.13;;
13927;SDS011;7036;50.834;4.718;2024-02-16T09:45:22;2.45;;;2.10;;
13927;SDS011;7036;50.834;4.718;2024-02-16T09:47:50;2.13;;;1.77;;
13927;SDS011;7036;50.834;4.718;2024-02-16T09:50:17;5.03;;;2.15;;
13927;SDS011;7036;50.834;4.718;2024-02-16T09:52:48;4.32;;;2.20;;
13927;SDS011;7036;50.834;4.718;2024-02-16T09:55:15;2.80;;;1.90;;
13927;SDS011;7036;50.834;4.718;2024-02-16T09:57:43;4.03;;;2.58;;
13927;SDS011;7036;50.834;4.718;2024-02-16T10:00:11;3.75;;;2.08;;
13927;SDS011;7036;50.834;4.718;2024-02-16T10:02:42;3.55;;;2.42;;
13927;SDS011;7036;50.834;4.718;2024-02-16T10:05:17;2.83;;;2.40;;
13927;SDS011;7036;50.834;4.718;2024-02-16T10:07:43;3.10;;;2.07;;
13927;SDS011;7036;50.834;4.718;2024-02-16T10:10:24;3.38;;;2.35;;
13927;SDS011;7036;50.834;4.718;2024-02-16T10:13:05;4.10;;;2.30;;
13927;SDS011;7036;50.834;4.718;2024-02-16T10:15:32;2.80;;;2.20;;
13927;SDS011;7036;50.834;4.718;2024-02-16T10:18:04;2.63;;;1.95;;
13927;SDS011;7036;50.834;4.718;2024-02-16T10:20:31;5.23;;;2.30;;
13927;SDS011;7036;50.834;4.718;2024-02-16T10:23:04;2.63;;;2.17;;
13927;SDS011;7036;50.834;4.718;2024-02-16T10:25:39;3.00;;;2.30;;
13927;SDS011;7036;50.834;4.718;2024-02-16T10:28:04;2.70;;;2.07;;
13927;SDS011;7036;50.834;4.718;2024-02-16T10:30:31;2.92;;;2.22;;
13927;SDS011;7036;50.834;4.718;2024-02-16T10:32:59;3.03;;;2.72;;
13927;SDS011;7036;50.834;4.718;2024-02-16T10:35:27;5.38;;;2.65;;
13927;SDS011;7036;50.834;4.718;2024-02-16T10:37:55;3.33;;;2.22;;
13927;SDS011;7036;50.834;4.718;2024-02-16T10:40:23;2.83;;;2.00;;
13927;SDS011;7036;50.834;4.718;2024-02-16T10:42:51;3.75;;;2.35;;
13927;SDS011;7036;50.834;4.718;2024-02-16T10:45:19;3.58;;;2.55;;
13927;SDS011;7036;50.834;4.718;2024-02-16T10:47:46;3.67;;;2.30;;
13927;SDS011;7036;50.834;4.718;2024-02-16T10:50:13;3.25;;;2.25;;
13927;SDS011;7036;50.834;4.718;2024-02-16T10:52:41;3.03;;;2.30;;
13927;SDS011;7036;50.834;4.718;2024-02-16T10:55:09;3.72;;;2.13;;
13927;SDS011;7036;50.834;4.718;2024-02-16T10:57:38;4.05;;;2.30;;
13927;SDS011;7036;50.834;4.718;2024-02-16T11:00:08;4.75;;;2.42;;
13927;SDS011;7036;50.834;4.718;2024-02-16T11:02:50;5.07;;;2.60;;
13927;SDS011;7036;50.834;4.718;2024-02-16T11:05:10;2.70;;;2.03;;
13927;SDS011;7036;50.834;4.718;2024-02-16T11:07:38;4.43;;;2.80;;
13927;SDS011;7036;50.834;4.718;2024-02-16T11:10:06;2.25;;;2.05;;
13927;SDS011;7036;50.834;4.718;2024-02-16T11:12:34;3.10;;;2.28;;
13927;SDS011;7036;50.834;4.718;2024-02-16T11:15:02;4.38;;;2.47;;
13927;SDS011;7036;50.834;4.718;2024-02-16T11:17:30;3.90;;;2.90;;
13927;SDS011;7036;50.834;4.718;2024-02-16T11:19:56;2.80;;;2.43;;
13927;SDS011;7036;50.834;4.718;2024-02-16T11:22:26;3.83;;;2.20;;
13927;SDS011;7036;50.834;4.718;2024-02-16T11:24:52;3.53;;;2.70;;
13927;SDS011;7036;50.834;4.718;2024-02-16T11:27:19;3.25;;;2.70;;
13927;SDS011;7036;50.834;4.718;2024-02-16T11:29:48;3.15;;;2.53;;
13927;SDS011;7036;50.834;4.718;2024-02-16T11:32:15;3.17;;;2.65;;
13927;SDS011;7036;50.834;4.718;2024-02-16T11:34:43;3.85;;;2.85;;
13927;SDS011;7036;50.834;4.718;2024-02-16T11:37:12;4.50;;;2.80;;
13927;SDS011;7036;50.834;4.718;2024-02-16T11:39:39;4.43;;;2.60;;
13927;SDS011;7036;50.834;4.718;2024-02-16T11:42:08;3.85;;;2.63;;
13927;SDS011;7036;50.834;4.718;2024-02-16T11:44:35;3.08;;;2.78;;
13927;SDS011;7036;50.834;4.718;2024-02-16T11:47:03;3.10;;;2.45;;
13927;SDS011;7036;50.834;4.718;2024-02-16T11:49:31;3.97;;;2.80;;
13927;SDS011;7036;50.834;4.718;2024-02-16T11:52:00;3.20;;;2.90;;
13927;SDS011;7036;50.834;4.718;2024-02-16T11:54:27;4.03;;;2.87;;
13927;SDS011;7036;50.834;4.718;2024-02-16T11:56:55;3.75;;;2.60;;
13927;SDS011;7036;50.834;4.718;2024-02-16T11:59:23;3.20;;;2.90;;
13927;SDS011;7036;50.834;4.718;2024-02-16T12:01:55;3.55;;;2.85;;
13927;SDS011;7036;50.834;4.718;2024-02-16T12:04:23;3.03;;;2.63;;
13927;SDS011;7036;50.834;4.718;2024-02-16T12:06:56;3.23;;;2.87;;
13927;SDS011;7036;50.834;4.718;2024-02-16T12:09:23;3.93;;;2.67;;
13927;SDS011;7036;50.834;4.718;2024-02-16T12:11:52;4.70;;;2.83;;
13927;SDS011;7036;50.834;4.718;2024-02-16T12:14:23;5.27;;;3.00;;
13927;SDS011;7036;50.834;4.718;2024-02-16T12:16:51;4.50;;;2.80;;
13927;SDS011;7036;50.834;4.718;2024-02-16T12:19:20;5.07;;;3.00;;
13927;SDS011;7036;50.834;4.718;2024-02-16T12:21:48;5.63;;;3.27;;
13927;SDS011;7036;50.834;4.718;2024-02-16T12:24:14;2.92;;;2.63;;
13927;SDS011;7036;50.834;4.718;2024-02-16T12:26:42;4.38;;;2.55;;
13927;SDS011;7036;50.834;4.718;2024-02-16T12:29:10;2.92;;;2.47;;
13927;SDS011;7036;50.834;4.718;2024-02-16T12:31:44;4.88;;;2.80;;
13927;SDS011;7036;50.834;4.718;2024-02-16T12:34:08;3.23;;;2.60;;
13927;SDS011;7036;50.834;4.718;2024-02-16T12:36:36;4.28;;;3.17;;
13927;SDS011;7036;50.834;4.718;2024-02-16T12:39:04;4.47;;;3.10;;
13927;SDS011;7036;50.834;4.718;2024-02-16T12:41:32;5.50;;;2.90;;
13927;SDS011;7036;50.834;4.718;2024-02-16T12:44:01;4.70;;;3.10;;
13927;SDS011;7036;50.834;4.718;2024-02-16T12:46:29;4.13;;;3.13;;
13927;SDS011;7036;50.834;4.718;2024-02-16T12:48:57;3.35;;;2.63;;
13927;SDS011;7036;50.834;4.718;2024-02-16T12:51:24;3.05;;;2.75;;
13927;SDS011;7036;50.834;4.718;2024-02-16T12:53:51;3.72;;;2.97;;
13927;SDS011;7036;50.834;4.718;2024-02-16T12:56:19;4.65;;;3.00;;
13927;SDS011;7036;50.834;4.718;2024-02-16T12:58:47;4.47;;;2.80;;
13927;SDS011;7036;50.834;4.718;2024-02-16T13:01:15;4.72;;;2.95;;
13927;SDS011;7036;50.834;4.718;2024-02-16T13:03:43;2.88;;;2.50;;
13927;SDS011;7036;50.834;4.718;2024-02-16T13:06:11;3.15;;;2.92;;
13927;SDS011;7036;50.834;4.718;2024-02-16T13:08:38;4.38;;;2.90;;
13927;SDS011;7036;50.834;4.718;2024-02-16T13:11:06;3.53;;;2.95;;
13927;SDS011;7036;50.834;4.718;2024-02-16T13:13:34;4.30;;;2.75;;
13927;SDS011;7036;50.834;4.718;2024-02-16T13:16:02;3.30;;;3.00;;
13927;SDS011;7036;50.834;4.718;2024-02-16T13:18:29;3.83;;;2.50;;
13927;SDS011;7036;50.834;4.718;2024-02-16T13:20:56;2.58;;;2.38;;
13927;SDS011;7036;50.834;4.718;2024-02-16T13:23:24;3.28;;;2.97;;
13927;SDS011;7036;50.834;4.718;2024-02-16T13:25:52;3.17;;;2.63;;
13927;SDS011;7036;50.834;4.718;2024-02-16T13:28:20;3.45;;;2.80;;
13927;SDS011;7036;50.834;4.718;2024-02-16T13:30:47;3.03;;;2.45;;
13927;SDS011;7036;50.834;4.718;2024-02-16T13:33:14;3.88;;;2.53;;
13927;SDS011;7036;50.834;4.718;2024-02-16T13:35:42;3.00;;;2.10;;
13927;SDS011;7036;50.834;4.718;2024-02-16T13:38:10;3.40;;;2.45;;
13927;SDS011;7036;50.834;4.718;2024-02-16T13:40:38;4.25;;;2.50;;
13927;SDS011;7036;50.834;4.718;2024-02-16T13:43:06;3.13;;;2.40;;
13927;SDS011;7036;50.834;4.718;2024-02-16T13:45:50;3.38;;;2.85;;
13927;SDS011;7036;50.834;4.718;2024-02-16T13:48:16;4.97;;;2.40;;
13927;SDS011;7036;50.834;4.718;2024-02-16T13:50:47;2.92;;;2.50;;
13927;SDS011;7036;50.834;4.718;2024-02-16T13:53:14;3.17;;;2.70;;
13927;SDS011;7036;50.834;4.718;2024-02-16T13:55:42;3.28;;;2.60;;
13927;SDS011;7036;50.834;4.718;2024-02-16T13:58:10;3.10;;;2.65;;
13927;SDS011;7036;50.834;4.718;2024-02-16T14:00:39;2.77;;;2.57;;
13927;SDS011;7036;50.834;4.718;2024-02-16T14:03:08;3.25;;;2.85;;
13927;SDS011;7036;50.834;4.718;2024-02-16T14:05:37;4.35;;;2.33;;
13927;SDS011;7036;50.834;4.718;2024-02-16T14:08:20;4.00;;;2.47;;
13927;SDS011;7036;50.834;4.718;2024-02-16T14:10:47;2.63;;;2.30;;
13927;SDS011;7036;50.834;4.718;2024-02-16T14:13:15;2.63;;;2.25;;
13927;SDS011;7036;50.834;4.718;2024-02-16T14:15:43;2.70;;;2.30;;
13927;SDS011;7036;50.834;4.718;2024-02-16T14:18:11;2.67;;;2.22;;
13927;SDS011;7036;50.834;4.718;2024-02-16T14:20:39;2.92;;;2.35;;
13927;SDS011;7036;50.834;4.718;2024-02-16T14:23:07;2.92;;;2.65;;
13927;SDS011;7036;50.834;4.718;2024-02-16T14:25:35;3.03;;;2.30;;
13927;SDS011;7036;50.834;4.718;2024-02-16T14:28:04;3.33;;;2.17;;
13927;SDS011;7036;50.834;4.718;2024-02-16T14:30:32;3.75;;;2.15;;
13927;SDS011;7036;50.834;4.718;2024-02-16T14:33:00;2.53;;;2.20;;
13927;SDS011;7036;50.834;4.718;2024-02-16T14:35:28;2.78;;;2.47;;
13927;SDS011;7036;50.834;4.718;2024-02-16T14:37:56;2.42;;;2.22;;
13927;SDS011;7036;50.834;4.718;2024-02-16T14:40:24;2.88;;;2.33;;
13927;SDS011;7036;50.834;4.718;2024-02-16T14:42:52;4.00;;;2.50;;
13927;SDS011;7036;50.834;4.718;2024-02-16T14:45:20;2.90;;;2.70;;
13927;SDS011;7036;50.834;4.718;2024-02-16T14:47:47;2.95;;;2.30;;
13927;SDS011;7036;50.834;4.718;2024-02-16T14:50:15;4.05;;;2.40;;
13927;SDS011;7036;50.834;4.718;2024-02-16T14:52:43;2.60;;;2.40;;
13927;SDS011;7036;50.834;4.718;2024-02-16T14:55:11;2.72;;;2.50;;
13927;SDS011;7036;50.834;4.718;2024-02-16T14:57:42;2.55;;;2.20;;
13927;SDS011;7036;50.834;4.718;2024-02-16T15:00:09;2.63;;;2.23;;
13927;SDS011;7036;50.834;4.718;2024-02-16T15:02:37;2.30;;;2.10;;
13927;SDS011;7036;50.834;4.718;2024-02-16T15:05:05;2.50;;;2.28;;
13927;SDS011;7036;50.834;4.718;2024-02-16T15:07:32;2.70;;;2.33;;
13927;SDS011;7036;50.834;4.718;2024-02-16T15:09:58;2.93;;;2.47;;
13927;SDS011;7036;50.834;4.718;2024-02-16T15:12:26;2.65;;;2.17;;
13927;SDS011;7036;50.834;4.718;2024-02-16T15:14:54;2.58;;;2.38;;
13927;SDS011;7036;50.834;4.718;2024-02-16T15:17:22;2.72;;;2.50;;
13927;SDS011;7036;50.834;4.718;2024-02-16T15:19:50;2.92;;;2.60;;
13927;SDS011;7036;50.834;4.718;2024-02-16T15:22:18;3.35;;;2.65;;
13927;SDS011;7036;50.834;4.718;2024-02-16T15:24:46;2.60;;;2.30;;
13927;SDS011;7036;50.834;4.718;2024-02-16T15:27:14;2.70;;;2.50;;
13927;SDS011;7036;50.834;4.718;2024-02-16T15:29:42;2.50;;;2.30;;
13927;SDS011;7036;50.834;4.718;2024-02-16T15:32:10;3.00;;;2.75;;
13927;SDS011;7036;50.834;4.718;2024-02-16T15:34:37;3.67;;;3.20;;
13927;SDS011;7036;50.834;4.718;2024-02-16T15:37:05;3.22;;;3.03;;
13927;SDS011;7036;50.834;4.718;2024-02-16T15:39:32;2.95;;;2.50;;
13927;SDS011;7036;50.834;4.718;2024-02-16T15:42:00;3.00;;;2.58;;